Time;durP1;ratioP1;P1;durP2;ratioP2;P2;SDS_P1;SDS_P2;PMS_P1;PMS_P2;Temp;Humidity;BMP_temperature;BMP_pressure;BME280_temperature;BME280_humidity;BME280_pressure;Samples;Min_cycle;Max_cycle;Signal;HPM_P1;HPM_P2
2021/05/05 00:00:30;;;;;;;3.55;1.13;;;8.90;99.90;;;;;;4190144;28;20028;-70
2021/05/05 00:02:31;;;;;;;5.25;1.60;;;8.90;99.90;;;;;;4192556;28;20041;-71
2021/05/05 00:04:32;;;;;;;4.63;1.73;;;8.90;99.90;;;;;;4192888;28;20371;-71
2021/05/05 00:06:32;;;;;;;3.30;1.35;;;8.80;99.90;;;;;;4191434;28;20045;-71
2021/05/05 00:08:33;;;;;;;3.17;1.42;;;8.80;99.90;;;;;;4192177;28;20080;-71
2021/05/05 00:10:34;;;;;;;4.47;1.30;;;8.80;99.90;;;;;;4192840;28;20032;-71
2021/05/05 00:12:36;;;;;;;4.97;1.25;;;8.90;99.90;;;;;;4191186;28;20037;-71
2021/05/05 00:14:37;;;;;;;4.90;1.33;;;8.80;99.90;;;;;;4192419;28;20395;-71
2021/05/05 00:16:37;;;;;;;4.22;1.55;;;8.80;99.90;;;;;;4193005;28;20025;-71
2021/05/05 00:18:38;;;;;;;5.82;1.30;;;8.80;99.90;;;;;;4191113;28;20036;-71
2021/05/05 00:20:39;;;;;;;3.50;1.13;;;8.80;99.90;;;;;;4192715;28;20044;-71
2021/05/05 00:22:41;;;;;;;3.60;0.90;;;8.80;99.90;;;;;;4192716;28;20264;-71
2021/05/05 00:24:41;;;;;;;2.88;1.23;;;8.80;99.90;;;;;;4191845;28;20464;-71
2021/05/05 00:26:43;;;;;;;5.15;1.48;;;8.80;99.90;;;;;;4190373;28;20044;-71
2021/05/05 00:28:43;;;;;;;2.67;1.25;;;8.80;99.90;;;;;;4189986;28;20054;-71
2021/05/05 00:30:44;;;;;;;2.15;1.25;;;8.80;99.90;;;;;;4192340;28;20097;-71
2021/05/05 00:32:45;;;;;;;2.10;1.10;;;8.80;99.90;;;;;;4192345;28;20111;-71
2021/05/05 00:34:45;;;;;;;3.20;1.30;;;8.80;99.90;;;;;;4190340;28;20567;-70
2021/05/05 00:36:46;;;;;;;2.35;1.00;;;8.70;99.90;;;;;;4192117;28;20488;-70
2021/05/05 00:38:47;;;;;;;2.08;1.10;;;8.50;99.90;;;;;;4190231;28;20049;-71
2021/05/05 00:40:48;;;;;;;3.85;1.10;;;8.50;99.90;;;;;;4192016;28;20036;-71
2021/05/05 00:42:49;;;;;;;2.60;0.85;;;8.40;99.90;;;;;;4192641;28;20043;-71
2021/05/05 00:44:55;;;;;;;3.03;0.60;;;8.50;99.90;;;;;;4191991;28;20481;-71
2021/05/05 00:46:56;;;;;;;1.85;0.50;;;8.50;99.90;;;;;;4189635;28;20041;-71
2021/05/05 00:48:56;;;;;;;0.90;0.50;;;8.50;99.90;;;;;;4191616;28;20418;-71
2021/05/05 00:50:59;;;;;;;2.20;1.15;;;8.40;99.90;;;;;;4192000;28;20444;-70
2021/05/05 00:53:00;;;;;;;1.52;0.50;;;8.50;99.90;;;;;;4191742;28;20036;-71
2021/05/05 00:55:01;;;;;;;1.38;0.47;;;8.40;99.90;;;;;;4191271;28;20044;-71
2021/05/05 00:57:02;;;;;;;1.40;0.70;;;8.40;99.90;;;;;;4190345;28;20493;-71
2021/05/05 00:59:03;;;;;;;1.50;0.77;;;8.40;99.90;;;;;;4189836;28;20167;-71
2021/05/05 01:01:04;;;;;;;1.42;0.70;;;8.40;99.90;;;;;;4190547;28;20070;-71
2021/05/05 01:03:05;;;;;;;0.45;0.38;;;8.30;99.90;;;;;;4191565;28;20345;-71
2021/05/05 01:05:07;;;;;;;0.88;0.50;;;8.30;99.90;;;;;;4189671;28;20108;-71
2021/05/05 01:07:09;;;;;;;0.98;0.50;;;8.30;99.90;;;;;;4191686;28;20090;-71
2021/05/05 01:09:10;;;;;;;1.17;0.70;;;8.30;99.90;;;;;;4190475;28;20051;-71
2021/05/05 01:11:10;;;;;;;1.40;0.65;;;8.30;99.90;;;;;;4190351;28;20029;-71
2021/05/05 01:13:13;;;;;;;1.65;0.50;;;8.30;99.90;;;;;;4190612;28;20033;-71
2021/05/05 01:15:16;;;;;;;2.20;0.85;;;8.40;99.90;;;;;;4191823;28;20136;-71
2021/05/05 01:17:17;;;;;;;1.40;0.70;;;8.30;99.90;;;;;;4166822;28;20697;-71
2021/05/05 01:19:18;;;;;;;1.35;0.73;;;8.40;99.90;;;;;;4186999;28;20409;-71
2021/05/05 01:21:19;;;;;;;2.03;0.68;;;8.40;99.90;;;;;;4190583;28;20039;-71
2021/05/05 01:23:20;;;;;;;1.27;0.80;;;8.50;99.90;;;;;;4190639;28;20035;-71
2021/05/05 01:25:21;;;;;;;1.48;0.77;;;8.50;99.90;;;;;;4190905;28;20442;-71
2021/05/05 01:27:21;;;;;;;1.73;1.00;;;8.50;99.90;;;;;;4190726;28;20605;-71
2021/05/05 01:29:22;;;;;;;1.60;1.00;;;8.50;99.90;;;;;;4188755;28;20113;-71
2021/05/05 01:31:23;;;;;;;2.15;0.88;;;8.50;99.90;;;;;;4192117;28;20086;-71
2021/05/05 01:33:24;;;;;;;1.67;1.13;;;8.50;99.90;;;;;;4191346;28;20028;-71
2021/05/05 01:35:25;;;;;;;2.10;0.90;;;8.50;99.90;;;;;;4189636;28;20534;-72
2021/05/05 01:37:25;;;;;;;2.33;1.25;;;8.40;99.90;;;;;;4190989;28;20067;-71
2021/05/05 01:39:27;;;;;;;1.90;1.02;;;8.40;99.90;;;;;;4189995;28;20061;-71
2021/05/05 01:41:27;;;;;;;2.75;1.30;;;8.40;99.90;;;;;;4190419;28;20105;-71
2021/05/05 01:43:28;;;;;;;2.88;1.40;;;8.40;99.90;;;;;;4189541;28;20672;-71
2021/05/05 01:45:29;;;;;;;3.42;1.63;;;8.40;99.90;;;;;;4191550;28;20051;-71
2021/05/05 01:47:29;;;;;;;2.35;1.40;;;8.40;99.90;;;;;;4192238;28;20472;-71
2021/05/05 01:49:31;;;;;;;2.42;1.45;;;8.40;99.90;;;;;;4172982;28;20021;-71
2021/05/05 01:51:32;;;;;;;1.77;1.27;;;8.40;99.90;;;;;;4187883;28;20412;-71
2021/05/05 01:53:32;;;;;;;4.38;1.63;;;8.40;99.90;;;;;;4191815;28;20040;-71
2021/05/05 01:55:33;;;;;;;4.55;2.00;;;8.40;99.90;;;;;;4189646;28;20035;-71
2021/05/05 01:57:38;;;;;;;4.65;2.05;;;8.40;99.90;;;;;;4191718;28;20125;-71
2021/05/05 01:59:38;;;;;;;2.63;1.40;;;8.30;99.90;;;;;;4191973;28;20036;-71
2021/05/05 02:01:39;;;;;;;2.88;1.77;;;8.30;99.90;;;;;;4191586;28;20550;-71
2021/05/05 02:03:40;;;;;;;2.92;1.63;;;8.20;99.90;;;;;;4190731;28;20036;-71
2021/05/05 02:05:40;;;;;;;3.35;1.73;;;8.30;99.90;;;;;;4189722;28;20071;-71
2021/05/05 02:07:41;;;;;;;2.08;1.35;;;8.30;99.90;;;;;;4191405;28;20024;-71
2021/05/05 02:09:42;;;;;;;1.88;1.50;;;8.30;99.90;;;;;;4190147;28;20115;-71
2021/05/05 02:11:42;;;;;;;2.22;1.25;;;8.20;99.90;;;;;;4190157;28;20082;-71
2021/05/05 02:13:43;;;;;;;2.75;1.52;;;8.20;99.90;;;;;;4191676;28;20040;-71
2021/05/05 02:15:44;;;;;;;2.10;1.40;;;8.20;99.90;;;;;;4191160;28;20036;-71
2021/05/05 02:17:46;;;;;;;3.45;1.70;;;8.20;99.90;;;;;;4191178;28;20037;-71
2021/05/05 02:19:47;;;;;;;3.83;1.48;;;8.20;99.90;;;;;;4190723;28;20037;-71
2021/05/05 02:21:47;;;;;;;2.53;1.10;;;8.20;99.90;;;;;;4184314;28;20048;-71
2021/05/05 02:23:48;;;;;;;2.55;1.30;;;8.20;99.90;;;;;;4174593;28;20037;-71
2021/05/05 02:25:48;;;;;;;2.30;1.45;;;8.10;99.90;;;;;;4193805;28;20053;-71
2021/05/05 02:27:50;;;;;;;4.25;1.60;;;8.10;99.90;;;;;;4194381;28;20035;-71
2021/05/05 02:29:51;;;;;;;1.47;1.20;;;8.00;99.90;;;;;;4194557;28;20033;-71
2021/05/05 02:31:52;;;;;;;3.30;1.60;;;8.00;99.90;;;;;;4192124;28;20036;-71
2021/05/05 02:33:53;;;;;;;2.13;1.42;;;8.00;99.90;;;;;;4194532;28;20119;-71
2021/05/05 02:35:54;;;;;;;2.25;1.40;;;7.90;99.90;;;;;;4193735;28;20085;-71
2021/05/05 02:37:55;;;;;;;2.20;0.98;;;8.00;99.90;;;;;;4192204;28;20037;-71
2021/05/05 02:39:55;;;;;;;4.95;1.88;;;7.90;99.90;;;;;;4194090;28;20592;-71
2021/05/05 02:41:56;;;;;;;2.38;1.50;;;7.90;99.90;;;;;;4193569;28;20033;-71
2021/05/05 02:43:57;;;;;;;2.78;1.48;;;8.00;99.90;;;;;;4193232;28;20484;-71
2021/05/05 02:45:57;;;;;;;3.92;1.90;;;8.00;99.90;;;;;;4193788;28;20041;-71
2021/05/05 02:47:58;;;;;;;4.47;1.80;;;7.90;99.90;;;;;;4191833;28;20110;-71
2021/05/05 02:49:59;;;;;;;5.70;1.92;;;7.90;99.90;;;;;;4193445;28;20051;-71
2021/05/05 02:52:00;;;;;;;3.45;1.63;;;7.90;99.90;;;;;;4193720;28;20044;-71
2021/05/05 02:54:01;;;;;;;4.78;1.50;;;7.90;99.90;;;;;;4191373;28;20423;-71
2021/05/05 02:56:02;;;;;;;3.38;1.92;;;7.90;99.90;;;;;;4191876;28;20107;-71
2021/05/05 02:58:03;;;;;;;4.15;1.80;;;7.90;99.90;;;;;;4193956;28;20040;-71
2021/05/05 03:00:09;;;;;;;4.00;1.77;;;7.90;99.90;;;;;;4194139;28;20122;-71
2021/05/05 03:02:09;;;;;;;3.17;1.75;;;7.90;99.90;;;;;;4193347;28;20094;-71
2021/05/05 03:04:10;;;;;;;2.10;1.83;;;7.80;99.90;;;;;;4193311;28;20637;-71
2021/05/05 03:06:12;;;;;;;2.80;1.63;;;7.80;99.90;;;;;;4193898;28;20044;-71
2021/05/05 03:08:13;;;;;;;3.53;2.30;;;7.80;99.90;;;;;;4192027;28;20118;-71
2021/05/05 03:10:14;;;;;;;2.83;2.00;;;7.80;99.90;;;;;;4193558;28;20040;-71
2021/05/05 03:12:15;;;;;;;4.82;2.20;;;7.70;99.90;;;;;;4192278;28;20074;-71
2021/05/05 03:14:15;;;;;;;2.95;2.00;;;7.80;99.90;;;;;;4193349;28;20037;-71
2021/05/05 03:16:16;;;;;;;4.03;2.08;;;7.70;99.90;;;;;;4193398;28;20063;-71
2021/05/05 03:18:17;;;;;;;4.38;2.10;;;7.60;99.90;;;;;;4193791;28;20047;-71
2021/05/05 03:20:17;;;;;;;3.15;2.35;;;7.60;99.90;;;;;;4193463;28;20048;-71
2021/05/05 03:22:19;;;;;;;4.57;2.50;;;7.60;99.90;;;;;;4193139;28;20040;-71
2021/05/05 03:24:20;;;;;;;5.70;2.50;;;7.60;99.90;;;;;;4192803;28;20583;-71
2021/05/05 03:26:20;;;;;;;5.18;2.45;;;7.50;99.90;;;;;;4192776;28;20041;-71
2021/05/05 03:28:21;;;;;;;4.38;2.05;;;7.50;99.90;;;;;;4193076;28;20445;-71
2021/05/05 03:30:22;;;;;;;3.17;2.10;;;7.50;99.90;;;;;;4193900;28;20051;-71
2021/05/05 03:32:23;;;;;;;7.18;2.40;;;7.60;99.90;;;;;;4191666;28;20528;-71
2021/05/05 03:34:24;;;;;;;3.67;2.30;;;7.60;99.90;;;;;;4192267;28;20040;-71
2021/05/05 03:36:25;;;;;;;4.13;2.45;;;7.50;99.90;;;;;;4191037;28;20044;-71
2021/05/05 03:38:26;;;;;;;4.93;2.90;;;7.50;99.90;;;;;;4193062;28;20029;-71
2021/05/05 03:40:28;;;;;;;5.88;3.15;;;7.50;99.90;;;;;;4175046;28;20570;-71
2021/05/05 03:42:31;;;;;;;4.70;2.70;;;7.50;99.90;;;;;;4191381;28;20090;-71
2021/05/05 03:44:31;;;;;;;4.60;3.20;;;7.60;99.90;;;;;;4192537;28;20127;-71
2021/05/05 03:46:32;;;;;;;4.82;2.63;;;7.60;99.90;;;;;;4174565;28;20062;-71
2021/05/05 03:48:34;;;;;;;5.40;3.00;;;7.50;99.90;;;;;;4193358;28;20584;-71
2021/05/05 03:50:35;;;;;;;6.03;3.65;;;7.60;99.90;;;;;;4193621;28;20059;-71
2021/05/05 03:52:36;;;;;;;7.57;4.00;;;7.50;99.90;;;;;;4190529;28;20040;-71
2021/05/05 03:54:36;;;;;;;7.32;3.60;;;7.50;99.90;;;;;;4190876;28;20028;-71
2021/05/05 03:56:37;;;;;;;5.88;3.53;;;7.60;99.90;;;;;;4191223;28;20048;-71
2021/05/05 03:58:38;;;;;;;4.85;3.05;;;7.60;99.90;;;;;;4191172;28;20087;-71
2021/05/05 04:00:39;;;;;;;4.38;3.20;;;7.60;99.90;;;;;;4191271;28;20056;-71
2021/05/05 04:02:39;;;;;;;8.23;3.78;;;7.60;99.90;;;;;;4192489;28;20044;-71
2021/05/05 04:04:40;;;;;;;8.43;4.03;;;7.60;99.90;;;;;;4191896;28;20048;-71
2021/05/05 04:06:41;;;;;;;6.47;3.65;;;7.60;99.90;;;;;;4191907;28;20107;-71
2021/05/05 04:08:41;;;;;;;7.30;3.90;;;7.60;99.90;;;;;;4190684;28;20029;-71
2021/05/05 04:10:42;;;;;;;9.43;3.38;;;7.60;99.90;;;;;;4190789;28;20041;-71
2021/05/05 04:12:43;;;;;;;7.07;3.78;;;7.70;99.90;;;;;;4192658;28;20124;-72
2021/05/05 04:14:43;;;;;;;7.85;4.43;;;7.60;99.90;;;;;;4191906;28;20118;-71
2021/05/05 04:16:44;;;;;;;7.70;4.05;;;7.60;99.90;;;;;;4192399;28;20094;-71
2021/05/05 04:18:44;;;;;;;5.25;3.85;;;7.60;99.90;;;;;;4192784;28;20353;-71
2021/05/05 04:20:45;;;;;;;8.40;4.00;;;7.60;99.90;;;;;;4192270;28;20048;-71
2021/05/05 04:22:47;;;;;;;5.45;3.92;;;7.60;99.90;;;;;;4192387;28;20114;-71
2021/05/05 04:24:48;;;;;;;7.72;4.93;;;7.70;99.90;;;;;;4190597;28;20040;-71
2021/05/05 04:26:50;;;;;;;13.13;4.70;;;7.70;99.90;;;;;;4192316;28;20435;-71
2021/05/05 04:28:51;;;;;;;7.22;4.28;;;7.70;99.90;;;;;;4191929;28;20116;-71
2021/05/05 04:30:52;;;;;;;10.63;4.72;;;7.70;99.90;;;;;;4192383;28;20502;-71
2021/05/05 04:32:53;;;;;;;7.80;4.28;;;7.70;99.90;;;;;;4192545;28;20028;-71
2021/05/05 04:34:53;;;;;;;6.68;4.40;;;7.70;99.90;;;;;;4191628;28;20136;-71
2021/05/05 04:36:55;;;;;;;8.60;4.85;;;7.70;99.90;;;;;;4190759;28;20029;-71
2021/05/05 04:38:55;;;;;;;10.60;4.85;;;7.80;99.90;;;;;;4189291;28;20037;-71
2021/05/05 04:40:56;;;;;;;7.72;5.18;;;7.70;99.90;;;;;;4192269;28;20054;-71
2021/05/05 04:42:56;;;;;;;8.40;5.57;;;7.60;99.90;;;;;;4191831;28;20044;-71
2021/05/05 04:45:00;;;;;;;7.32;4.90;;;7.60;99.90;;;;;;4192220;28;20032;-71
2021/05/05 04:47:01;;;;;;;8.48;4.57;;;7.60;99.90;;;;;;4190283;28;20064;-71
2021/05/05 04:49:03;;;;;;;10.02;4.78;;;7.60;99.90;;;;;;4190107;28;20044;-71
2021/05/05 04:51:03;;;;;;;8.23;4.07;;;7.60;99.90;;;;;;4192387;28;20079;-71
2021/05/05 04:53:04;;;;;;;8.65;4.05;;;7.60;99.90;;;;;;4192008;28;20032;-71
2021/05/05 04:55:06;;;;;;;8.23;3.88;;;7.70;99.90;;;;;;4190100;28;20565;-71
2021/05/05 04:57:07;;;;;;;9.55;3.67;;;7.70;99.90;;;;;;4192078;28;20619;-71
2021/05/05 04:59:07;;;;;;;7.10;3.65;;;7.70;99.90;;;;;;4191799;28;20044;-71
2021/05/05 05:01:08;;;;;;;8.18;3.10;;;7.60;99.90;;;;;;4191954;28;20689;-71
2021/05/05 05:03:09;;;;;;;6.70;2.95;;;7.60;99.90;;;;;;4190505;28;20032;-71
2021/05/05 05:05:10;;;;;;;5.65;2.92;;;7.60;99.90;;;;;;4190087;28;20139;-71
2021/05/05 05:07:11;;;;;;;6.57;2.92;;;7.60;99.90;;;;;;4192528;28;20044;-71
2021/05/05 05:09:11;;;;;;;6.05;2.85;;;7.60;99.90;;;;;;4191257;28;20494;-71
2021/05/05 05:11:12;;;;;;;7.13;1.88;;;7.60;99.90;;;;;;4186191;28;20041;-71
2021/05/05 05:13:12;;;;;;;4.00;2.15;;;7.60;99.90;;;;;;4190769;28;20062;-71
2021/05/05 05:15:14;;;;;;;4.22;2.20;;;7.60;99.90;;;;;;4191529;28;20497;-72
2021/05/05 05:17:14;;;;;;;5.93;2.25;;;7.60;99.90;;;;;;4191969;28;20033;-71
2021/05/05 05:19:15;;;;;;;4.93;2.28;;;7.60;99.90;;;;;;4190361;28;20039;-71
2021/05/05 05:21:16;;;;;;;4.82;1.98;;;7.60;99.90;;;;;;4191978;28;20044;-71
2021/05/05 05:23:16;;;;;;;4.22;1.55;;;7.60;99.90;;;;;;4180298;28;20056;-71
2021/05/05 05:25:17;;;;;;;3.47;1.75;;;7.60;99.90;;;;;;4186899;28;20120;-71
2021/05/05 05:27:18;;;;;;;4.55;1.98;;;7.60;99.90;;;;;;4183696;28;20032;-71
2021/05/05 05:29:19;;;;;;;3.97;1.90;;;7.60;99.90;;;;;;4186421;28;20036;-71
2021/05/05 05:31:19;;;;;;;4.10;2.10;;;7.50;99.90;;;;;;4185665;28;20131;-71
2021/05/05 05:33:20;;;;;;;4.15;2.17;;;7.60;99.90;;;;;;4186544;28;20143;-71
2021/05/05 05:35:21;;;;;;;5.25;2.70;;;7.60;99.90;;;;;;4187050;28;20032;-71
2021/05/05 05:37:21;;;;;;;5.55;3.60;;;7.70;99.90;;;;;;4183529;28;20443;-71
2021/05/05 05:39:22;;;;;;;8.07;4.05;;;7.60;99.90;;;;;;4186928;28;20033;-71
2021/05/05 05:41:22;;;;;;;6.75;4.50;;;7.60;99.90;;;;;;4186980;28;20021;-71
2021/05/05 05:43:23;;;;;;;7.78;4.60;;;7.50;99.90;;;;;;4186748;28;20070;-71
2021/05/05 05:45:24;;;;;;;8.85;5.28;;;7.50;99.90;;;;;;4185118;28;20052;-71
2021/05/05 05:47:24;;;;;;;10.68;4.93;;;7.60;99.90;;;;;;4184874;28;20451;-71
2021/05/05 05:49:25;;;;;;;7.97;5.43;;;7.50;99.90;;;;;;4185611;28;20059;-72
2021/05/05 05:51:26;;;;;;;9.55;5.63;;;7.50;99.90;;;;;;4186323;28;20550;-71
2021/05/05 05:53:26;;;;;;;9.93;6.22;;;7.50;99.90;;;;;;4186401;28;20131;-71
2021/05/05 05:55:29;;;;;;;9.35;6.22;;;7.50;99.90;;;;;;4185404;28;20036;-71
2021/05/05 05:57:30;;;;;;;8.63;5.40;;;7.50;99.90;;;;;;4184147;28;20037;-71
2021/05/05 05:59:31;;;;;;;11.20;6.45;;;7.50;99.90;;;;;;4189528;28;20461;-71
2021/05/05 06:01:31;;;;;;;9.85;5.55;;;7.50;99.90;;;;;;4186378;28;20039;-71
2021/05/05 06:03:32;;;;;;;10.27;5.20;;;7.50;99.90;;;;;;4188271;28;20029;-70
2021/05/05 06:05:34;;;;;;;12.35;5.90;;;7.50;99.90;;;;;;4189528;28;20795;-69
2021/05/05 06:07:35;;;;;;;10.77;5.45;;;7.50;99.90;;;;;;4189756;28;20045;-69
2021/05/05 06:09:35;;;;;;;8.32;4.32;;;7.50;99.90;;;;;;4188378;28;20028;-69
2021/05/05 06:11:36;;;;;;;12.25;5.03;;;7.50;99.90;;;;;;4187632;28;20035;-69
2021/05/05 06:13:37;;;;;;;8.50;5.38;;;7.40;99.90;;;;;;4189087;28;20032;-69
2021/05/05 06:15:37;;;;;;;7.50;4.45;;;7.30;99.90;;;;;;4189199;28;20711;-69
2021/05/05 06:17:38;;;;;;;7.13;3.88;;;7.20;99.90;;;;;;4188927;28;20816;-69
2021/05/05 06:19:39;;;;;;;7.20;4.55;;;7.20;99.90;;;;;;4189238;28;20044;-69
2021/05/05 06:21:39;;;;;;;5.90;4.35;;;7.10;99.90;;;;;;4188579;28;20036;-69
2021/05/05 06:23:40;;;;;;;6.00;3.83;;;7.10;99.90;;;;;;4186600;28;20025;-69
2021/05/05 06:25:41;;;;;;;7.38;4.03;;;7.10;99.90;;;;;;4188925;28;20047;-69
2021/05/05 06:27:41;;;;;;;5.28;3.55;;;7.10;99.90;;;;;;4185160;28;20055;-69
2021/05/05 06:29:42;;;;;;;4.85;2.78;;;7.00;99.90;;;;;;4189665;28;20090;-69
2021/05/05 06:31:43;;;;;;;4.45;2.50;;;6.90;99.90;;;;;;4193313;28;20469;-69
2021/05/05 06:33:43;;;;;;;3.40;2.53;;;6.90;99.90;;;;;;4193599;28;20111;-69
2021/05/05 06:35:44;;;;;;;4.30;2.45;;;6.80;99.90;;;;;;4193429;28;20042;-69
2021/05/05 06:37:45;;;;;;;4.80;2.60;;;6.90;99.90;;;;;;4193643;28;20028;-69
2021/05/05 06:39:45;;;;;;;3.88;2.47;;;6.90;99.90;;;;;;4192385;28;20032;-69
2021/05/05 06:41:46;;;;;;;3.78;2.90;;;6.80;99.90;;;;;;4191234;28;20029;-69
2021/05/05 06:43:46;;;;;;;4.10;2.80;;;6.90;99.90;;;;;;4191971;28;20036;-69
2021/05/05 06:45:47;;;;;;;3.83;3.05;;;6.90;99.90;;;;;;4193001;28;20437;-69
2021/05/05 06:47:47;;;;;;;5.20;3.13;;;6.90;99.90;;;;;;4191832;28;20021;-70
2021/05/05 06:49:48;;;;;;;4.00;3.05;;;7.00;99.90;;;;;;4192123;28;20524;-69
2021/05/05 06:51:50;;;;;;;5.65;3.17;;;7.00;99.90;;;;;;4193094;28;20149;-70
2021/05/05 06:53:51;;;;;;;6.75;3.60;;;7.10;99.90;;;;;;4191084;28;20423;-69
2021/05/05 06:55:51;;;;;;;4.82;3.15;;;7.10;99.90;;;;;;4190599;28;20033;-69
2021/05/05 06:57:52;;;;;;;6.45;3.22;;;7.10;99.90;;;;;;4192670;28;20036;-69
2021/05/05 06:59:53;;;;;;;3.60;2.78;;;7.20;99.90;;;;;;4187837;28;20044;-69
2021/05/05 07:01:53;;;;;;;4.45;3.03;;;7.30;99.90;;;;;;4191712;28;20460;-70
2021/05/05 07:03:54;;;;;;;6.72;2.33;;;7.30;99.90;;;;;;4173141;28;20594;-69
2021/05/05 07:05:55;;;;;;;2.53;2.00;;;7.40;99.90;;;;;;4191909;28;20037;-70
2021/05/05 07:07:55;;;;;;;5.15;2.20;;;7.40;99.90;;;;;;4191856;28;20028;-70
2021/05/05 07:09:57;;;;;;;2.85;2.05;;;7.50;99.90;;;;;;4173931;28;20056;-69
2021/05/05 07:11:57;;;;;;;2.53;2.13;;;7.50;99.90;;;;;;4190023;28;20059;-69
2021/05/05 07:13:58;;;;;;;3.70;2.50;;;7.50;99.90;;;;;;4192040;28;20028;-69
2021/05/05 07:15:59;;;;;;;4.28;2.53;;;7.50;99.90;;;;;;4190898;28;20032;-69
2021/05/05 07:18:00;;;;;;;4.45;2.40;;;7.50;99.90;;;;;;4191573;28;20338;-69
2021/05/05 07:20:01;;;;;;;6.00;2.03;;;7.50;99.90;;;;;;4191956;28;20416;-69
2021/05/05 07:22:02;;;;;;;4.38;2.47;;;7.50;99.90;;;;;;4191031;28;20043;-69
2021/05/05 07:24:03;;;;;;;6.75;2.83;;;7.50;99.90;;;;;;4191477;28;20106;-69
2021/05/05 07:26:03;;;;;;;2.63;2.10;;;7.50;99.90;;;;;;4192179;28;20048;-69
2021/05/05 07:28:04;;;;;;;3.33;2.00;;;7.50;99.90;;;;;;4191316;28;20031;-69
2021/05/05 07:30:08;;;;;;;3.88;1.95;;;7.50;99.90;;;;;;4191751;28;20050;-70
2021/05/05 07:32:09;;;;;;;3.30;2.20;;;7.40;99.90;;;;;;4192008;28;20661;-69
2021/05/05 07:34:11;;;;;;;3.25;2.15;;;7.50;99.90;;;;;;4191811;28;20108;-69
2021/05/05 07:36:16;;;;;;;3.00;1.73;;;7.40;99.90;;;;;;4177636;28;20508;-69
2021/05/05 07:47:16;;;;;;;2.92;1.65;;;7.40;99.90;;;;;;4191684;28;20043;-68
2021/05/05 07:49:18;;;;;;;2.65;1.25;;;7.40;99.90;;;;;;4189508;28;20044;-69
2021/05/05 07:51:19;;;;;;;3.20;1.60;;;7.40;99.90;;;;;;4189659;28;20682;-69
2021/05/05 07:53:20;;;;;;;1.33;1.13;;;7.50;99.90;;;;;;4188648;28;20036;-69
2021/05/05 07:55:20;;;;;;;2.35;1.13;;;7.60;99.90;;;;;;4189806;28;20051;-69
2021/05/05 07:57:22;;;;;;;1.48;1.10;;;7.60;99.90;;;;;;4191450;28;20480;-69
2021/05/05 07:59:23;;;;;;;1.97;1.20;;;7.60;99.90;;;;;;4189611;28;20078;-69
2021/05/05 08:01:23;;;;;;;4.30;1.65;;;7.70;99.90;;;;;;4190320;28;20689;-69
2021/05/05 08:03:24;;;;;;;1.98;1.33;;;7.70;99.90;;;;;;4189847;28;20064;-69
2021/05/05 08:05:25;;;;;;;2.55;1.48;;;7.80;99.90;;;;;;4188740;28;20036;-69
2021/05/05 08:07:25;;;;;;;2.92;1.35;;;7.80;99.90;;;;;;4194558;28;20020;-69
2021/05/05 08:09:27;;;;;;;4.50;1.45;;;7.90;99.90;;;;;;4188905;28;20066;-67
2021/05/05 08:11:28;;;;;;;2.20;1.05;;;7.90;99.90;;;;;;4189445;28;20062;-69
2021/05/05 08:13:28;;;;;;;6.57;1.55;;;8.00;99.90;;;;;;4190521;28;20028;-69
2021/05/05 08:15:33;;;;;;;2.78;1.27;;;8.00;99.90;;;;;;4189961;28;20059;-69
2021/05/05 08:17:34;;;;;;;1.65;1.10;;;8.10;99.90;;;;;;4191870;28;20028;-69
2021/05/05 08:19:36;;;;;;;3.85;1.42;;;8.10;99.90;;;;;;4192287;28;20031;-69
2021/05/05 08:21:36;;;;;;;4.32;1.52;;;8.20;99.90;;;;;;4191049;28;20040;-69
2021/05/05 08:23:38;;;;;;;4.25;1.80;;;8.30;99.90;;;;;;4191566;28;20480;-69
2021/05/05 08:25:39;;;;;;;3.37;1.93;;;8.30;99.90;;;;;;4191914;28;20503;-69
2021/05/05 08:27:40;;;;;;;5.72;1.58;;;8.40;99.90;;;;;;4190213;28;20025;-69
2021/05/05 08:29:40;;;;;;;6.82;2.30;;;8.50;99.90;;;;;;4191946;28;20021;-69
2021/05/05 08:31:41;;;;;;;4.88;2.10;;;8.70;99.90;;;;;;4191989;28;20119;-69
2021/05/05 08:33:42;;;;;;;6.82;2.30;;;8.70;99.90;;;;;;4191231;28;20036;-69
2021/05/05 08:35:43;;;;;;;5.57;1.83;;;8.70;99.90;;;;;;4191731;28;20044;-69
2021/05/05 08:37:45;;;;;;;4.65;2.38;;;8.90;99.90;;;;;;4191563;28;20044;-69
2021/05/05 08:39:46;;;;;;;4.85;1.90;;;8.90;99.90;;;;;;4190430;28;20044;-69
2021/05/05 08:41:47;;;;;;;5.03;2.28;;;9.10;99.90;;;;;;4190109;28;20036;-68
2021/05/05 08:43:47;;;;;;;6.25;2.60;;;9.10;99.90;;;;;;4190886;28;20028;-69
2021/05/05 08:45:49;;;;;;;5.35;2.03;;;9.20;99.90;;;;;;4191080;28;20048;-69
2021/05/05 08:47:52;;;;;;;7.00;2.42;;;9.20;99.90;;;;;;4191497;28;20432;-69
2021/05/05 08:49:53;;;;;;;11.50;2.97;;;9.40;99.90;;;;;;4191307;28;20039;-69
2021/05/05 08:51:54;;;;;;;6.40;2.42;;;9.40;99.90;;;;;;4172535;28;20092;-69
2021/05/05 08:53:54;;;;;;;4.40;2.40;;;9.40;99.90;;;;;;4191424;28;20032;-69
2021/05/05 08:55:55;;;;;;;8.57;2.60;;;9.40;99.90;;;;;;4191914;28;20086;-69
2021/05/05 08:57:57;;;;;;;9.63;2.38;;;9.30;99.90;;;;;;4191035;28;20055;-69
2021/05/05 08:59:58;;;;;;;7.00;2.75;;;9.30;99.90;;;;;;4190201;28;20104;-69
2021/05/05 09:02:00;;;;;;;6.93;2.92;;;9.30;99.90;;;;;;4190253;28;20059;-69
2021/05/05 09:04:01;;;;;;;5.85;2.33;;;9.30;99.90;;;;;;4189544;28;20028;-69
2021/05/05 09:06:04;;;;;;;11.00;3.38;;;9.20;99.90;;;;;;4188765;28;20044;-69
2021/05/05 09:08:11;;;;;;;8.68;2.63;;;9.20;99.90;;;;;;4190253;28;20064;-69
2021/05/05 09:10:17;;;;;;;8.68;2.90;;;9.20;99.90;;;;;;4190705;28;20075;-69
2021/05/05 09:12:25;;;;;;;5.65;2.08;;;9.10;99.90;;;;;;4186817;28;20039;-69
2021/05/05 09:14:27;;;;;;;8.02;2.85;;;9.00;99.90;;;;;;4190987;28;20641;-69
2021/05/05 09:16:30;;;;;;;;;;;9.00;99.90;;;;;;4192179;28;20033;-69
2021/05/05 09:18:53;;;;;;;9.90;2.90;;;9.00;99.90;;;;;;4191977;28;19919;-69
2021/05/05 09:21:07;;;;;;;10.15;2.75;;;8.90;99.90;;;;;;4188501;28;20037;-69
2021/05/05 09:23:09;;;;;;;8.48;2.65;;;8.80;99.90;;;;;;4188945;28;20044;-69
2021/05/05 09:25:12;;;;;;;10.60;2.73;;;8.80;99.90;;;;;;4191156;28;20036;-69
2021/05/05 09:27:14;;;;;;;9.18;2.65;;;8.80;99.90;;;;;;4191146;28;20040;-70
2021/05/05 09:29:16;;;;;;;6.75;2.28;;;8.80;99.90;;;;;;4189101;28;20162;-70
2021/05/05 09:31:17;;;;;;;14.33;3.80;;;8.80;99.90;;;;;;4189306;28;20047;-69
2021/05/05 09:33:25;;;;;;;9.63;2.88;;;8.70;99.90;;;;;;4189967;28;20856;-69
2021/05/05 09:35:33;;;;;;;3.83;1.80;;;8.40;99.90;;;;;;4192064;28;20600;-69
2021/05/05 09:37:33;;;;;;;4.22;1.60;;;8.30;99.90;;;;;;4192038;28;20119;-69
2021/05/05 09:39:40;;;;;;;6.25;2.55;;;8.30;99.90;;;;;;4191885;28;20033;-69
2021/05/05 09:41:45;;;;;;;7.78;2.33;;;8.40;99.90;;;;;;4193491;28;20448;-70
2021/05/05 09:43:47;;;;;;;5.45;2.30;;;8.50;99.90;;;;;;4191877;28;20117;-70
2021/05/05 09:45:48;;;;;;;5.63;2.00;;;8.60;99.90;;;;;;4194067;28;20054;-69
2021/05/05 09:47:57;;;;;;;9.63;2.30;;;8.70;99.90;;;;;;4194340;28;20048;-69
2021/05/05 09:49:58;;;;;;;3.47;1.83;;;8.80;99.90;;;;;;4193592;28;20032;-70
2021/05/05 09:52:08;;;;;;;5.32;1.77;;;8.90;99.90;;;;;;4194529;28;20399;-68
2021/05/05 09:54:08;;;;;;;5.03;2.00;;;8.90;99.90;;;;;;4191053;28;20033;-69
2021/05/05 09:56:11;;;;;;;4.63;2.17;;;8.90;99.90;;;;;;4193863;28;20127;-68
2021/05/05 09:58:41;;;;;;;5.68;1.98;;;8.90;99.90;;;;;;4192337;28;20040;-70
2021/05/05 10:00:42;;;;;;;4.07;1.35;;;8.90;99.90;;;;;;4194035;28;20032;-69
2021/05/05 10:02:51;;;;;;;2.33;1.15;;;8.80;99.90;;;;;;4193210;28;20031;-69
2021/05/05 10:05:11;;;;;;;3.03;1.25;;;8.70;99.90;;;;;;4193589;28;20038;-69
2021/05/05 10:07:11;;;;;;;3.60;1.23;;;8.70;99.90;;;;;;4192698;28;20055;-69
2021/05/05 10:09:12;;;;;;;2.15;0.90;;;8.80;99.90;;;;;;4193078;28;20115;-69
2021/05/05 10:11:13;;;;;;;4.45;1.08;;;8.80;99.90;;;;;;4192345;28;20524;-69
2021/05/05 10:13:15;;;;;;;3.15;0.95;;;8.80;99.90;;;;;;4191820;28;20111;-69
2021/05/05 10:15:17;;;;;;;3.97;1.07;;;8.90;99.90;;;;;;4192062;28;20435;-69
2021/05/05 10:17:18;;;;;;;3.17;1.40;;;8.90;99.90;;;;;;4192957;28;20062;-69
2021/05/05 10:19:20;;;;;;;1.40;0.80;;;9.00;99.90;;;;;;4193502;28;20036;-69
2021/05/05 10:21:22;;;;;;;;;;;9.10;99.90;;;;;;4192144;28;20142;-69
2021/05/05 10:23:24;;;;;;;3.42;1.20;;;9.20;99.90;;;;;;4193249;28;19916;-69
2021/05/05 10:25:26;;;;;;;4.17;1.10;;;9.30;99.90;;;;;;4191772;28;20044;-69
2021/05/05 10:27:26;;;;;;;5.95;1.83;;;9.50;99.90;;;;;;4191346;28;20028;-69
2021/05/05 10:29:31;;;;;;;4.75;1.85;;;9.50;99.90;;;;;;4191332;28;20111;-69
2021/05/05 10:31:34;;;;;;;6.10;1.77;;;9.60;99.90;;;;;;4192087;28;20019;-69
2021/05/05 10:33:40;;;;;;;5.57;2.13;;;9.70;99.90;;;;;;4190307;28;20126;-69
2021/05/05 10:35:41;;;;;;;6.47;1.77;;;9.80;99.90;;;;;;4191214;28;20131;-69
2021/05/05 10:37:55;;;;;;;13.15;2.80;;;9.80;99.90;;;;;;4191164;28;20438;-69
2021/05/05 10:40:15;;;;;;;10.93;2.75;;;9.80;99.90;;;;;;4192669;28;20071;-69
2021/05/05 10:42:21;;;;;;;7.07;2.65;;;9.70;99.90;;;;;;4188381;28;20037;-69
2021/05/05 10:44:34;;;;;;;10.60;2.38;;;9.50;99.90;;;;;;4189872;28;20664;-69
2021/05/05 10:46:38;;;;;;;10.35;2.47;;;9.20;99.90;;;;;;4192670;28;20077;-69
2021/05/05 10:49:12;;;;;;;6.78;2.20;;;9.00;99.90;;;;;;4192927;28;20108;-69
2021/05/05 10:51:12;;;;;;;8.90;2.60;;;9.00;99.90;;;;;;4192690;28;20504;-69